KBNA/BNA METAR and TAF weather

Enter ICAO airport designator
Station Type Date Time Source
KBNA METAR 2020/03/31 08:53 UTC NOAA

KBNA 310853Z 03012KT 10SM -RA BKN060 OVC085 12/06 A2995 RMK AO2 SLP137 P0002 60002 T01170056 58025


Station Type Date Time Source
KBNA Decoded METAR 2020/03/31 08:53 UTC NOAA

NASHVILLE INTERNATIONAL AIRPORT, TN, United States (KBNA) 36-07N 086-41W 210M
Mar 31, 2020 - 04:53 AM EDT / 2020.03.31 0853 UTC
Wind: from the NNE (030 degrees) at 14 MPH (12 KT):0
Visibility: 10 mile(s):0
Sky conditions: overcast
Weather: light rain
Precipitation last hour: 0.02 inches
Temperature: 53.1 F (11.7 C)
Dew Point: 42.1 F (5.6 C)
Relative Humidity: 66%
Pressure (altimeter): 29.95 in. Hg (1014 hPa)
Pressure tendency: 0.07 inches (2.5 hPa) lower than three hours ago
ob: KBNA 310853Z 03012KT 10SM -RA BKN060 OVC085 12/06 A2995 RMK AO2 SLP137 P0002 60002 T01170056 58025
cycle: 9

Station Type Date Time Source
KBNA TAF 2020/03/31 09:06 UTC NOAA

TAF
AMD KBNA 310904Z 3109/0106 03012KT 6SM -RA BKN060 OVC090
TEMPO 3110/3112 5SM -SHRA OVC025
FM311200 03009G14KT 5SM -SHRA OVC025
FM311700 02011G17KT 5SM -SHRA OVC007
FM312300 35010G15KT P6SM BKN060
FM010500 34008KT P6SM SCT100

Example: see airport list